Time;durP1;ratioP1;P1;durP2;ratioP2;P2;SDS_P1;SDS_P2;PMS_P1;PMS_P2;Temp;Humidity;BMP_temperature;BMP_pressure;BME280_temperature;BME280_humidity;BME280_pressure;Samples;Min_cycle;Max_cycle;Signal;HPM_P1;HPM_P2
2022/06/29 00:00:50;;;;;;;8.02;3.95;;;17.40;99.90;;;;;;4791236;29;20508;-59
2022/06/29 00:03:16;;;;;;;6.70;3.83;;;17.40;99.90;;;;;;4822495;29;20051;-60
2022/06/29 00:05:41;;;;;;;5.60;3.35;;;17.40;99.90;;;;;;4822805;29;20054;-62
2022/06/29 00:08:08;;;;;;;5.18;3.50;;;17.40;99.90;;;;;;4822683;29;20091;-59
2022/06/29 00:10:37;;;;;;;6.03;3.80;;;17.40;99.90;;;;;;4822544;29;20497;-59
2022/06/29 00:13:03;;;;;;;8.98;3.67;;;17.30;99.90;;;;;;4806505;29;20055;-59
2022/06/29 00:15:28;;;;;;;5.80;3.47;;;17.30;99.90;;;;;;4822736;29;20066;-60
2022/06/29 00:17:54;;;;;;;7.70;3.80;;;17.30;99.90;;;;;;4822310;29;20141;-59
2022/06/29 00:20:20;;;;;;;6.03;3.70;;;17.30;99.90;;;;;;4822761;29;20111;-59
2022/06/29 00:22:47;;;;;;;7.50;3.97;;;17.30;99.90;;;;;;4822197;29;20104;-62
2022/06/29 00:25:14;;;;;;;7.70;3.72;;;17.30;99.90;;;;;;4822719;29;20090;-59
2022/06/29 00:27:41;;;;;;;9.30;4.25;;;17.20;99.90;;;;;;4822353;29;20453;-60
2022/06/29 00:30:08;;;;;;;8.23;4.03;;;17.20;99.90;;;;;;4805858;29;20058;-59
2022/06/29 00:32:34;;;;;;;5.22;3.53;;;17.20;99.90;;;;;;4822179;29;20062;-60
2022/06/29 00:35:00;;;;;;;7.55;3.85;;;17.10;99.90;;;;;;4790961;29;20054;-61
2022/06/29 00:37:26;;;;;;;6.22;3.80;;;17.10;99.90;;;;;;4822343;29;20073;-60
2022/06/29 00:39:53;;;;;;;8.00;4.10;;;17.10;99.90;;;;;;4822088;29;20058;-59
2022/06/29 00:42:19;;;;;;;5.53;4.00;;;;;;;;;;4822616;29;20055;-59
2022/06/29 00:44:45;;;;;;;8.25;4.40;;;;;;;;;;4822364;29;20107;-59
2022/06/29 00:47:11;;;;;;;7.93;4.00;;;;;;;;;;4821915;29;20107;-59
2022/06/29 00:49:36;;;;;;;7.00;4.00;;;17.00;99.90;;;;;;4822249;29;20046;-59
2022/06/29 00:52:09;;;;;;;5.53;4.10;;;16.90;99.90;;;;;;4822149;29;20133;-59
2022/06/29 00:54:44;;;;;;;7.45;4.18;;;16.90;99.90;;;;;;4806255;29;20451;-59
2022/06/29 00:57:21;;;;;;;8.40;4.50;;;16.90;99.90;;;;;;4805786;29;20120;-59
2022/06/29 00:59:50;;;;;;;4.88;3.92;;;16.80;99.90;;;;;;4822335;29;20069;-58
2022/06/29 01:02:18;;;;;;;7.82;4.00;;;16.80;99.90;;;;;;4822142;29;20054;-61
2022/06/29 01:04:45;;;;;;;5.95;4.20;;;16.80;99.90;;;;;;4822394;29;20090;-60
2022/06/29 01:07:16;;;;;;;7.10;4.22;;;16.70;99.90;;;;;;4805666;29;20054;-60
2022/06/29 01:09:43;;;;;;;10.27;4.60;;;16.70;99.90;;;;;;4824930;29;20069;-60
2022/06/29 01:12:09;;;;;;;11.32;4.50;;;16.70;99.90;;;;;;4825039;29;20058;-60
2022/06/29 01:14:35;;;;;;;6.13;4.07;;;16.70;99.90;;;;;;4825233;29;20115;-59
2022/06/29 01:17:00;;;;;;;7.47;4.38;;;16.70;99.90;;;;;;4808525;29;20137;-59
2022/06/29 01:19:26;;;;;;;9.07;4.68;;;16.70;99.90;;;;;;4809246;29;20137;-59
2022/06/29 01:21:53;;;;;;;6.03;4.38;;;16.70;99.90;;;;;;4824965;29;20058;-62
2022/06/29 01:24:20;;;;;;;8.88;4.68;;;16.70;99.90;;;;;;4825270;29;20191;-59
2022/06/29 01:26:46;;;;;;;6.70;4.38;;;16.70;99.90;;;;;;4825066;29;20049;-59
2022/06/29 01:29:12;;;;;;;10.02;4.57;;;16.70;99.90;;;;;;4824842;29;20645;-60
2022/06/29 01:31:38;;;;;;;6.55;4.60;;;16.70;99.90;;;;;;4824936;29;20524;-60
2022/06/29 01:34:04;;;;;;;5.68;4.47;;;16.70;99.90;;;;;;4824429;29;20489;-59
2022/06/29 01:36:30;;;;;;;7.47;4.57;;;16.70;99.90;;;;;;4825101;29;20506;-60
2022/06/29 01:38:55;;;;;;;8.93;4.40;;;16.70;99.90;;;;;;4824673;29;20050;-62
2022/06/29 01:41:21;;;;;;;6.57;4.63;;;16.70;99.90;;;;;;4825027;29;20065;-60
2022/06/29 01:43:47;;;;;;;6.88;4.97;;;16.60;99.90;;;;;;4808640;29;20050;-60
2022/06/29 01:46:13;;;;;;;7.05;4.75;;;16.70;99.90;;;;;;4824551;29;20049;-59
2022/06/29 01:48:38;;;;;;;6.75;4.22;;;16.60;99.90;;;;;;4808781;29;20061;-60
2022/06/29 01:51:04;;;;;;;8.98;4.82;;;16.60;99.90;;;;;;4824146;29;20050;-59
2022/06/29 01:53:30;;;;;;;6.57;4.47;;;16.60;99.90;;;;;;4824967;29;20050;-59
2022/06/29 01:55:55;;;;;;;8.73;5.20;;;16.60;99.90;;;;;;4808661;29;20489;-59
2022/06/29 01:58:21;;;;;;;5.57;4.80;;;16.60;99.90;;;;;;4808159;29;20054;-59
2022/06/29 02:00:47;;;;;;;10.85;4.72;;;16.50;99.90;;;;;;4824705;29;20053;-60
2022/06/29 02:03:13;;;;;;;6.10;5.00;;;16.60;99.90;;;;;;4807878;29;20055;-59
2022/06/29 02:05:39;;;;;;;7.72;4.93;;;16.50;99.90;;;;;;4824568;29;20386;-60
2022/06/29 02:08:05;;;;;;;7.70;5.00;;;16.60;99.90;;;;;;4823927;29;20050;-59
2022/06/29 02:10:31;;;;;;;6.57;5.10;;;16.60;99.90;;;;;;4808227;29;20050;-59
2022/06/29 02:12:57;;;;;;;7.15;4.35;;;16.60;99.90;;;;;;4824523;29;20410;-59
2022/06/29 02:15:23;;;;;;;6.38;4.50;;;16.60;99.90;;;;;;4824007;29;20548;-59
2022/06/29 02:17:50;;;;;;;7.53;4.55;;;16.60;99.90;;;;;;4824265;29;20057;-59
2022/06/29 02:20:16;;;;;;;8.20;5.00;;;16.60;99.90;;;;;;4823895;29;20053;-60
2022/06/29 02:22:41;;;;;;;7.47;4.78;;;16.60;99.90;;;;;;4824124;29;20406;-59
2022/06/29 02:25:08;;;;;;;6.82;4.95;;;16.60;99.90;;;;;;4823664;29;20050;-60
2022/06/29 02:27:41;;;;;;;6.93;5.22;;;16.60;99.90;;;;;;4824322;29;20115;-59
2022/06/29 02:30:09;;;;;;;6.70;4.90;;;16.70;99.90;;;;;;4807495;29;20047;-59
2022/06/29 02:35:18;;;;;;;8.20;5.30;;;16.70;99.90;;;;;;4823621;29;20054;-60
2022/06/29 02:37:44;;;;;;;11.15;5.35;;;16.70;99.90;;;;;;4807779;29;20512;-59
2022/06/29 02:40:11;;;;;;;7.25;4.97;;;16.70;99.90;;;;;;4823740;29;20062;-60
2022/06/29 02:42:37;;;;;;;7.13;4.85;;;16.70;99.90;;;;;;4824198;29;20065;-60
2022/06/29 02:45:03;;;;;;;8.77;5.50;;;16.60;99.90;;;;;;4823949;29;20489;-62
2022/06/29 02:47:28;;;;;;;9.07;5.10;;;16.60;99.90;;;;;;4807463;29;20054;-59
2022/06/29 02:49:54;;;;;;;7.40;4.80;;;16.60;99.90;;;;;;4807360;29;20061;-59
2022/06/29 02:52:20;;;;;;;7.82;5.18;;;16.60;99.90;;;;;;4807246;29;20054;-59
2022/06/29 02:54:45;;;;;;;6.68;5.05;;;16.60;99.90;;;;;;4823873;29;20470;-59
2022/06/29 02:57:11;;;;;;;7.97;5.40;;;16.60;99.90;;;;;;4823415;29;20164;-59
2022/06/29 02:59:37;;;;;;;8.65;5.22;;;16.50;99.90;;;;;;4823716;29;20106;-59
2022/06/29 03:02:03;;;;;;;6.35;4.88;;;16.50;99.90;;;;;;4807416;29;20051;-59
2022/06/29 03:04:29;;;;;;;8.18;4.97;;;16.60;99.90;;;;;;4807236;29;20078;-59
2022/06/29 03:06:55;;;;;;;8.05;5.47;;;16.60;99.90;;;;;;4806933;29;20512;-59
2022/06/29 03:09:21;;;;;;;7.90;5.15;;;16.60;99.90;;;;;;4822979;29;20054;-59
2022/06/29 03:11:47;;;;;;;8.68;5.40;;;16.50;99.90;;;;;;4823298;29;20452;-58
2022/06/29 03:14:12;;;;;;;9.88;5.80;;;16.50;99.90;;;;;;4822973;29;20051;-59
2022/06/29 03:16:38;;;;;;;6.72;5.40;;;16.50;99.90;;;;;;4823168;29;20050;-59
2022/06/29 03:19:04;;;;;;;7.40;5.18;;;16.50;99.90;;;;;;4823195;29;20089;-59
2022/06/29 03:21:29;;;;;;;8.00;6.00;;;16.40;99.90;;;;;;4823056;29;20061;-60
2022/06/29 03:23:55;;;;;;;9.85;6.00;;;16.40;99.90;;;;;;4823799;29;20050;-59
2022/06/29 03:26:21;;;;;;;8.52;5.50;;;16.40;99.90;;;;;;4806067;29;20057;-59
2022/06/29 03:28:48;;;;;;;9.32;5.70;;;16.40;99.90;;;;;;4823052;29;20054;-58
2022/06/29 03:31:13;;;;;;;8.63;5.70;;;16.20;99.90;;;;;;4822320;29;20523;-59
2022/06/29 03:33:39;;;;;;;11.20;6.10;;;16.30;99.90;;;;;;4807144;29;20141;-58
2022/06/29 03:36:05;;;;;;;8.32;6.03;;;16.30;99.90;;;;;;4823357;29;20078;-59
2022/06/29 03:38:31;;;;;;;7.95;5.65;;;16.30;99.90;;;;;;4822752;29;20054;-59
2022/06/29 03:40:56;;;;;;;7.10;5.57;;;16.30;99.90;;;;;;4823548;29;20075;-59
2022/06/29 03:43:22;;;;;;;7.75;6.03;;;16.30;99.90;;;;;;4822920;29;20050;-59
2022/06/29 03:45:48;;;;;;;6.68;5.95;;;16.20;99.90;;;;;;4806932;29;20047;-59
2022/06/29 03:48:15;;;;;;;9.20;6.25;;;16.30;99.90;;;;;;4822389;29;20050;-60
2022/06/29 03:50:41;;;;;;;9.98;6.05;;;16.20;99.90;;;;;;4823119;29;20093;-59
2022/06/29 03:53:06;;;;;;;7.95;6.15;;;16.20;99.90;;;;;;4823186;29;20085;-59
2022/06/29 03:55:32;;;;;;;8.95;5.53;;;16.30;99.90;;;;;;4806429;29;20268;-58
2022/06/29 03:57:58;;;;;;;8.85;6.35;;;16.20;99.90;;;;;;4822881;29;20423;-59
2022/06/29 04:00:23;;;;;;;7.18;5.80;;;16.20;99.90;;;;;;4822575;29;20129;-59
2022/06/29 04:02:49;;;;;;;8.90;6.03;;;16.30;99.90;;;;;;4806621;29;20054;-59
2022/06/29 04:05:15;;;;;;;8.40;6.10;;;16.20;99.90;;;;;;4822657;29;20137;-62
2022/06/29 04:07:41;;;;;;;7.32;5.60;;;16.30;99.90;;;;;;4822899;29;20046;-60
2022/06/29 04:10:07;;;;;;;8.95;6.10;;;16.30;99.90;;;;;;4806551;29;20054;-59
2022/06/29 04:12:35;;;;;;;7.22;5.95;;;16.30;99.90;;;;;;4806230;29;20267;-59
2022/06/29 04:15:04;;;;;;;7.20;6.25;;;16.20;99.90;;;;;;4822727;29;20159;-59
2022/06/29 04:17:29;;;;;;;11.82;6.15;;;16.30;99.90;;;;;;4805755;29;20047;-59
2022/06/29 04:19:55;;;;;;;8.00;6.43;;;16.30;99.90;;;;;;4791213;29;20047;-59
2022/06/29 04:22:22;;;;;;;9.63;6.32;;;16.20;99.90;;;;;;4822528;29;20148;-58
2022/06/29 04:24:48;;;;;;;8.30;5.75;;;16.30;99.90;;;;;;4822806;29;20050;-59
2022/06/29 04:27:14;;;;;;;7.05;5.78;;;16.30;99.90;;;;;;4822606;29;20091;-58
2022/06/29 04:29:40;;;;;;;7.32;5.68;;;16.30;99.90;;;;;;4822514;29;20082;-58
2022/06/29 04:32:06;;;;;;;6.68;5.50;;;16.40;99.90;;;;;;4822301;29;20572;-59
2022/06/29 04:34:32;;;;;;;7.15;5.97;;;16.40;99.90;;;;;;4806217;29;20443;-59
2022/06/29 04:36:57;;;;;;;9.02;6.35;;;16.40;99.90;;;;;;4822614;29;20046;-59
2022/06/29 04:39:23;;;;;;;11.02;5.93;;;16.50;99.90;;;;;;4822036;29;20076;-60
2022/06/29 04:41:52;;;;;;;8.43;6.30;;;16.60;99.90;;;;;;4806427;29;20145;-59
2022/06/29 04:44:17;;;;;;;9.13;6.18;;;16.60;99.90;;;;;;4824969;29;20085;-61
2022/06/29 04:46:43;;;;;;;8.10;6.45;;;16.70;99.90;;;;;;4825898;29;20169;-59
2022/06/29 04:49:09;;;;;;;8.05;6.00;;;16.70;99.90;;;;;;4825792;29;20085;-61
2022/06/29 04:51:35;;;;;;;8.02;6.10;;;16.80;99.90;;;;;;4794382;29;20097;-59
2022/06/29 04:54:02;;;;;;;8.20;5.97;;;16.80;99.90;;;;;;4825784;29;20103;-60
2022/06/29 04:56:34;;;;;;;8.20;6.05;;;16.90;99.90;;;;;;4825307;29;20089;-59
2022/06/29 04:59:01;;;;;;;8.32;6.03;;;16.90;99.90;;;;;;4825680;29;20050;-61
2022/06/29 05:01:30;;;;;;;10.55;5.82;;;17.00;99.90;;;;;;4808680;29;20497;-60
2022/06/29 05:03:56;;;;;;;8.43;5.60;;;17.10;99.90;;;;;;4809590;29;20422;-60
2022/06/29 05:06:22;;;;;;;8.77;6.43;;;17.20;99.90;;;;;;4825109;29;20050;-63
2022/06/29 05:08:52;;;;;;;9.02;5.78;;;17.20;99.90;;;;;;4825627;29;20106;-60
2022/06/29 05:11:20;;;;;;;8.02;5.75;;;17.30;99.90;;;;;;4825391;29;20070;-60
2022/06/29 05:13:46;;;;;;;8.45;6.03;;;17.30;99.90;;;;;;4825537;29;20058;-60
2022/06/29 05:16:11;;;;;;;6.60;5.70;;;17.40;99.90;;;;;;4824932;29;20084;-60
2022/06/29 05:18:37;;;;;;;8.90;6.07;;;17.50;99.90;;;;;;4824829;29;20142;-60
2022/06/29 05:21:04;;;;;;;6.72;5.45;;;17.50;99.90;;;;;;4825186;29;20046;-60
2022/06/29 05:23:31;;;;;;;8.65;5.68;;;17.60;99.90;;;;;;4808967;29;20059;-60
2022/06/29 05:25:58;;;;;;;7.30;5.28;;;17.60;99.90;;;;;;4825326;29;20076;-59
2022/06/29 05:28:24;;;;;;;8.82;5.70;;;17.60;99.90;;;;;;4808978;29;20079;-63
2022/06/29 05:30:50;;;;;;;6.72;5.30;;;17.60;99.90;;;;;;4824920;29;20062;-60
2022/06/29 05:33:16;;;;;;;6.70;5.80;;;17.60;99.90;;;;;;4793942;29;20492;-61
2022/06/29 05:35:42;;;;;;;6.15;5.43;;;17.70;99.90;;;;;;4808281;29;20499;-60
2022/06/29 05:38:08;;;;;;;8.65;5.80;;;17.70;99.90;;;;;;4809033;29;20046;-59
2022/06/29 05:40:34;;;;;;;7.47;5.22;;;17.70;99.90;;;;;;4824717;29;20046;-59
2022/06/29 05:43:00;;;;;;;7.03;5.55;;;17.80;99.90;;;;;;4808761;29;20137;-58
2022/06/29 05:45:26;;;;;;;6.95;5.53;;;17.90;99.90;;;;;;4824623;29;20105;-61
2022/06/29 05:47:53;;;;;;;10.13;6.03;;;18.00;99.90;;;;;;4793929;29;20126;-59
2022/06/29 05:50:21;;;;;;;10.77;6.07;;;18.10;99.90;;;;;;4824735;29;20051;-59
2022/06/29 05:52:47;;;;;;;6.30;5.10;;;18.10;99.90;;;;;;4807879;29;20718;-59
2022/06/29 05:55:13;;;;;;;11.75;5.45;;;18.20;99.90;;;;;;4808137;29;20050;-59
2022/06/29 05:57:38;;;;;;;7.90;4.85;;;18.40;99.90;;;;;;4824311;29;20495;-60
2022/06/29 06:00:06;;;;;;;6.72;5.25;;;18.80;99.90;;;;;;4808646;29;20133;-59
2022/06/29 06:02:31;;;;;;;9.05;4.70;;;19.10;99.90;;;;;;4807769;29;20103;-59
2022/06/29 06:04:57;;;;;;;8.38;4.85;;;19.50;99.90;;;;;;4824243;29;20050;-58
2022/06/29 06:07:23;;;;;;;6.97;4.60;;;19.90;99.90;;;;;;4808063;29;20043;-59
2022/06/29 06:09:49;;;;;;;6.10;4.28;;;20.00;99.90;;;;;;4807803;29;20691;-59
2022/06/29 06:12:14;;;;;;;7.82;4.85;;;19.90;99.90;;;;;;4824498;29;20515;-58
2022/06/29 06:14:40;;;;;;;7.00;4.45;;;20.00;99.90;;;;;;4824060;29;20540;-59
2022/06/29 06:17:06;;;;;;;7.45;3.88;;;20.20;99.90;;;;;;4824279;29;20046;-59
2022/06/29 06:19:32;;;;;;;6.53;4.30;;;20.20;99.90;;;;;;4807828;29;20071;-59
2022/06/29 06:21:58;;;;;;;9.15;4.63;;;20.30;99.90;;;;;;4807913;29;20052;-58
2022/06/29 06:24:24;;;;;;;6.53;3.90;;;20.80;99.90;;;;;;4824198;29;20382;-59
2022/06/29 06:26:49;;;;;;;6.80;4.05;;;21.60;99.90;;;;;;4823596;29;20046;-59
2022/06/29 06:29:15;;;;;;;5.57;3.67;;;22.70;99.90;;;;;;4824359;29;20471;-59
2022/06/29 06:31:41;;;;;;;5.68;3.53;;;23.50;99.90;;;;;;4823430;29;20470;-59
2022/06/29 06:34:06;;;;;;;7.30;3.70;;;24.40;99.90;;;;;;4823914;29;20058;-60
2022/06/29 06:36:32;;;;;;;7.15;3.33;;;25.00;99.90;;;;;;4807581;29;20504;-63
2022/06/29 06:38:58;;;;;;;8.13;2.95;;;25.60;98.80;;;;;;4807622;29;20168;-59
2022/06/29 06:41:25;;;;;;;4.05;2.65;;;26.20;98.80;;;;;;4807912;29;20065;-59
2022/06/29 06:43:59;;;;;;;4.35;2.63;;;26.80;96.30;;;;;;4823652;29;20060;-59
2022/06/29 06:46:26;;;;;;;4.53;2.70;;;27.10;95.40;;;;;;4807523;29;20093;-60
2022/06/29 06:48:52;;;;;;;4.88;2.50;;;27.60;96.70;;;;;;4823281;29;20062;-59
2022/06/29 06:51:23;;;;;;;2.97;2.05;;;27.90;94.60;;;;;;4823850;29;20054;-61
2022/06/29 06:53:49;;;;;;;4.00;2.40;;;28.20;94.90;;;;;;4823394;29;20209;-59
2022/06/29 06:56:15;;;;;;;5.47;2.40;;;28.30;93.20;;;;;;4823756;29;20389;-60
2022/06/29 06:58:41;;;;;;;3.97;2.25;;;28.60;93.10;;;;;;4807225;29;20051;-60
2022/06/29 07:01:08;;;;;;;7.20;2.65;;;28.70;90.90;;;;;;4823719;29;20412;-60
2022/06/29 07:03:38;;;;;;;6.10;2.67;;;28.90;89.20;;;;;;4823112;29;20125;-59
2022/06/29 07:06:06;;;;;;;4.22;2.10;;;29.30;90.30;;;;;;4822572;29;20050;-60
2022/06/29 07:08:32;;;;;;;5.82;2.10;;;29.90;90.10;;;;;;4823190;29;20087;-61
2022/06/29 07:10:59;;;;;;;7.35;2.65;;;30.00;86.30;;;;;;4821974;29;20070;-60
2022/06/29 07:13:25;;;;;;;6.65;2.30;;;30.00;85.00;;;;;;4807117;29;20110;-60
2022/06/29 07:15:51;;;;;;;7.03;2.58;;;30.10;85.00;;;;;;4821307;29;20065;-61
2022/06/29 07:18:17;;;;;;;6.88;2.33;;;30.10;86.00;;;;;;4792266;29;20055;-60
2022/06/29 07:20:42;;;;;;;4.45;2.28;;;30.40;86.10;;;;;;4822850;29;20089;-60
2022/06/29 07:23:08;;;;;;;4.70;2.00;;;30.80;85.80;;;;;;4823425;29;20050;-61
2022/06/29 07:25:34;;;;;;;3.70;2.10;;;30.80;83.70;;;;;;4791936;29;20053;-60
2022/06/29 07:28:00;;;;;;;4.53;2.20;;;30.90;84.70;;;;;;4823165;29;20049;-61
2022/06/29 07:30:26;;;;;;;4.97;2.03;;;31.10;84.30;;;;;;4823127;29;20061;-60
2022/06/29 07:32:51;;;;;;;5.68;2.15;;;31.20;84.00;;;;;;4822795;29;20072;-61
2022/06/29 07:35:17;;;;;;;4.45;1.90;;;31.30;82.60;;;;;;4804521;29;20089;-60
2022/06/29 07:37:43;;;;;;;4.78;2.10;;;31.70;82.20;;;;;;4806304;29;20070;-61
2022/06/29 07:40:09;;;;;;;8.40;2.58;;;32.10;81.10;;;;;;4791823;29;20050;-61
2022/06/29 07:42:36;;;;;;;8.38;2.53;;;32.10;79.40;;;;;;4822886;29;20082;-60
2022/06/29 07:45:03;;;;;;;4.70;2.10;;;31.90;78.70;;;;;;4823004;29;20385;-61
2022/06/29 07:47:28;;;;;;;6.93;2.10;;;32.00;79.80;;;;;;4823035;29;20089;-60
2022/06/29 07:49:54;;;;;;;4.20;1.85;;;32.30;76.90;;;;;;4822371;29;20090;-60
2022/06/29 07:52:20;;;;;;;5.72;2.22;;;32.60;79.00;;;;;;4822568;29;20083;-61
2022/06/29 07:54:46;;;;;;;3.28;1.90;;;32.70;76.80;;;;;;4806147;29;20061;-61
2022/06/29 07:57:12;;;;;;;3.83;1.77;;;32.60;75.00;;;;;;4806081;29;20054;-62
2022/06/29 07:59:38;;;;;;;5.78;1.80;;;32.60;76.40;;;;;;4805518;29;20145;-61
2022/06/29 08:02:03;;;;;;;7.40;2.25;;;32.90;76.40;;;;;;4804584;29;20110;-61
2022/06/29 08:04:29;;;;;;;3.53;1.98;;;32.80;75.20;;;;;;4822367;29;20054;-61
2022/06/29 08:06:55;;;;;;;4.88;1.67;;;32.90;75.30;;;;;;4821782;29;20057;-61
2022/06/29 08:09:23;;;;;;;5.53;1.80;;;33.10;74.90;;;;;;4790881;29;20130;-62
2022/06/29 08:11:51;;;;;;;5.35;1.88;;;33.40;74.70;;;;;;4789837;29;20061;-61
2022/06/29 08:14:16;;;;;;;4.03;1.92;;;33.60;74.70;;;;;;4821314;29;20077;-62
2022/06/29 08:16:43;;;;;;;5.20;1.60;;;33.70;74.60;;;;;;4822973;29;20082;-62
2022/06/29 08:19:08;;;;;;;4.18;1.67;;;34.00;74.40;;;;;;4809797;29;20054;-62
2022/06/29 08:21:34;;;;;;;4.43;1.77;;;34.40;74.20;;;;;;4825974;29;20560;-63
2022/06/29 08:24:00;;;;;;;4.63;1.67;;;34.60;73.70;;;;;;4809736;29;20152;-61
2022/06/29 08:26:26;;;;;;;4.85;2.33;;;34.30;73.20;;;;;;4809782;29;20049;-59
2022/06/29 08:28:51;;;;;;;4.68;1.65;;;33.90;71.20;;;;;;4825688;29;20050;-59
2022/06/29 08:31:17;;;;;;;3.15;1.58;;;33.70;72.50;;;;;;4809484;29;20054;-59
2022/06/29 08:33:43;;;;;;;4.25;2.00;;;33.60;72.30;;;;;;4826213;29;20062;-60
2022/06/29 08:36:09;;;;;;;3.60;1.73;;;33.30;71.90;;;;;;4809612;29;20160;-61
2022/06/29 08:38:35;;;;;;;2.45;1.80;;;33.30;71.00;;;;;;4809892;29;20217;-61
2022/06/29 08:41:01;;;;;;;3.42;1.63;;;33.30;71.40;;;;;;4825351;29;20150;-58
2022/06/29 08:43:26;;;;;;;4.13;1.70;;;33.30;70.80;;;;;;4825627;29;20069;-63
2022/06/29 08:45:53;;;;;;;4.57;1.83;;;32.80;71.30;;;;;;4825536;29;20043;-62
2022/06/29 08:48:19;;;;;;;2.28;1.42;;;32.60;71.40;;;;;;4809535;29;20519;-61
2022/06/29 08:50:51;;;;;;;2.58;1.70;;;32.80;72.10;;;;;;4825489;29;20047;-60
2022/06/29 08:53:17;;;;;;;2.97;1.60;;;32.70;71.70;;;;;;4825515;29;20050;-60
2022/06/29 08:55:45;;;;;;;3.47;1.63;;;32.30;71.50;;;;;;4809609;29;20057;-62
2022/06/29 08:58:18;;;;;;;4.32;1.73;;;31.70;71.20;;;;;;4809054;29;20324;-61
2022/06/29 09:00:44;;;;;;;;;;;31.10;71.50;;;;;;4809744;29;20497;-62
2022/06/29 09:03:15;;;;;;;4.13;1.60;;;30.80;72.00;;;;;;4824947;29;20008;-61
2022/06/29 09:06:01;;;;;;;5.15;1.77;;;30.50;72.80;;;;;;4825707;29;20054;-60
2022/06/29 09:08:27;;;;;;;3.70;1.90;;;30.50;73.00;;;;;;4809247;29;20046;-60
2022/06/29 09:10:53;;;;;;;4.65;1.70;;;30.10;73.40;;;;;;4825220;29;20051;-63
2022/06/29 09:13:24;;;;;;;3.03;1.67;;;29.90;73.40;;;;;;4825224;29;20050;-60
2022/06/29 09:15:58;;;;;;;5.43;2.00;;;29.60;73.80;;;;;;4809413;29;20065;-60
2022/06/29 09:18:32;;;;;;;3.55;1.90;;;29.50;74.00;;;;;;4825223;29;20090;-60
2022/06/29 09:21:06;;;;;;;4.95;1.85;;;29.60;75.00;;;;;;4825023;29;20079;-61
2022/06/29 09:23:34;;;;;;;3.20;1.70;;;30.10;75.20;;;;;;4809329;29;20086;-60
2022/06/29 09:26:00;;;;;;;3.63;1.70;;;30.80;74.40;;;;;;4824847;29;20474;-60
2022/06/29 09:28:31;;;;;;;5.90;1.90;;;31.30;74.10;;;;;;4824183;29;20501;-61
2022/06/29 09:30:58;;;;;;;5.30;1.65;;;31.60;72.70;;;;;;4807887;29;20082;-60
2022/06/29 09:33:29;;;;;;;4.10;1.67;;;31.70;73.00;;;;;;4824870;29;20085;-60
2022/06/29 09:36:10;;;;;;;3.67;1.88;;;31.80;72.90;;;;;;4824695;29;20051;-64
2022/06/29 09:38:37;;;;;;;7.15;2.05;;;31.90;72.70;;;;;;4808823;29;20054;-60
2022/06/29 09:41:11;;;;;;;5.28;2.08;;;31.70;72.90;;;;;;4823850;29;20098;-61
2022/06/29 09:43:41;;;;;;;4.63;2.00;;;31.60;73.50;;;;;;4808690;29;20050;-59
2022/06/29 09:46:09;;;;;;;4.13;1.75;;;31.50;72.50;;;;;;4823770;29;20083;-64
2022/06/29 09:48:37;;;;;;;4.15;2.40;;;31.20;73.00;;;;;;4808331;29;20133;-59
2022/06/29 09:53:54;;;;;;;3.72;1.83;;;31.40;74.10;;;;;;4824900;29;20054;-59
2022/06/29 09:56:21;;;;;;;3.60;1.73;;;31.50;73.50;;;;;;4824293;29;20069;-62
2022/06/29 09:58:48;;;;;;;3.75;1.85;;;31.50;73.80;;;;;;4824684;29;20114;-63
2022/06/29 10:04:01;;;;;;;6.22;1.73;;;31.70;73.50;;;;;;4824206;29;20054;-63
2022/06/29 10:06:28;;;;;;;4.80;1.92;;;31.60;73.40;;;;;;4824545;29;20054;-60
2022/06/29 10:08:56;;;;;;;3.55;1.80;;;31.40;72.60;;;;;;4808368;29;20057;-60
2022/06/29 10:14:43;;;;;;;6.32;2.05;;;30.80;73.30;;;;;;4824546;29;20092;-60
2022/06/29 10:17:28;;;;;;;4.82;1.70;;;31.00;74.20;;;;;;4824119;29;20373;-60
2022/06/29 10:20:05;;;;;;;4.97;1.85;;;31.00;72.80;;;;;;4824941;29;20140;-60
2022/06/29 10:22:31;;;;;;;3.55;1.90;;;30.90;73.20;;;;;;4824350;29;20054;-60
2022/06/29 10:25:04;;;;;;;4.28;1.90;;;30.80;72.80;;;;;;4824343;29;20046;-60
2022/06/29 10:27:30;;;;;;;;;;;30.80;74.10;;;;;;4808364;29;20046;-60
2022/06/29 10:30:21;;;;;;;2.33;1.70;;;30.80;73.30;;;;;;4824029;29;19947;-61
2022/06/29 10:32:48;;;;;;;3.20;1.80;;;30.80;73.30;;;;;;4807949;29;20066;-60
2022/06/29 10:35:14;;;;;;;2.58;1.60;;;30.80;73.40;;;;;;4823834;29;20409;-60
2022/06/29 10:37:54;;;;;;;3.33;1.90;;;30.70;72.40;;;;;;4823949;29;20050;-60
2022/06/29 10:40:24;;;;;;;4.80;2.00;;;30.60;73.70;;;;;;4823919;29;20061;-61
2022/06/29 10:43:09;;;;;;;5.43;2.40;;;30.70;72.40;;;;;;4823963;29;20086;-61
2022/06/29 10:45:46;;;;;;;3.00;1.80;;;30.70;73.00;;;;;;4824000;29;20192;-61
2022/06/29 10:48:14;;;;;;;2.83;1.80;;;30.70;72.40;;;;;;4823361;29;20054;-61
2022/06/29 10:50:44;;;;;;;3.55;2.10;;;30.50;72.40;;;;;;4807626;29;20497;-60
2022/06/29 10:53:15;;;;;;;4.78;1.90;;;30.50;73.00;;;;;;4823638;29;20054;-61
2022/06/29 10:55:41;;;;;;;3.35;1.95;;;30.50;74.00;;;;;;4823942;29;20057;-60
2022/06/29 10:58:08;;;;;;;4.55;1.80;;;30.50;73.50;;;;;;4807228;29;20057;-64
2022/06/29 11:01:01;;;;;;;5.20;2.10;;;30.40;72.60;;;;;;4823583;29;20580;-61
2022/06/29 11:03:27;;;;;;;2.67;1.77;;;30.30;71.80;;;;;;4807362;29;20050;-60
2022/06/29 11:16:58;;;;;;;4.40;1.60;;;30.80;72.00;;;;;;4806515;29;20501;-59
2022/06/29 11:19:33;;;;;;;4.65;1.60;;;30.90;70.50;;;;;;4807024;29;20069;-60
2022/06/29 11:22:18;;;;;;;2.55;1.50;;;31.00;69.60;;;;;;4823509;29;20060;-60
2022/06/29 11:25:02;;;;;;;7.20;1.90;;;31.10;70.10;;;;;;4823646;29;20129;-60
2022/06/29 11:27:38;;;;;;;2.85;1.67;;;31.20;70.50;;;;;;4806606;29;20485;-61
2022/06/29 11:30:09;;;;;;;3.75;1.73;;;31.30;70.20;;;;;;4807002;29;20141;-60
2022/06/29 11:32:45;;;;;;;3.00;1.50;;;31.30;70.00;;;;;;4823025;29;20069;-59
2022/06/29 11:35:14;;;;;;;4.05;1.75;;;31.20;70.40;;;;;;4806936;29;20058;-64
2022/06/29 11:38:07;;;;;;;1.95;1.40;;;31.10;69.60;;;;;;4823165;29;20046;-60
2022/06/29 11:40:36;;;;;;;3.40;1.50;;;30.60;68.90;;;;;;4819664;29;20727;-61
2022/06/29 11:43:07;;;;;;;3.75;1.73;;;30.50;69.20;;;;;;4807029;29;20134;-61
2022/06/29 11:45:36;;;;;;;4.75;1.48;;;30.50;68.60;;;;;;4822316;29;20501;-61
2022/06/29 11:48:10;;;;;;;2.65;1.70;;;30.30;68.90;;;;;;4823032;29;20050;-62
2022/06/29 11:50:43;;;;;;;3.03;1.80;;;30.10;69.80;;;;;;4822686;29;20085;-62
2022/06/29 11:53:09;;;;;;;3.45;1.70;;;29.90;69.20;;;;;;4822641;29;20097;-62
2022/06/29 11:55:40;;;;;;;3.20;1.60;;;29.90;69.10;;;;;;4806452;29;20090;-63
2022/06/29 11:58:10;;;;;;;3.45;1.70;;;29.80;69.60;;;;;;4806402;29;20050;-61
2022/06/29 12:00:39;;;;;;;3.20;1.52;;;29.70;70.80;;;;;;4822899;29;20233;-62
2022/06/29 12:03:05;;;;;;;3.28;1.88;;;29.70;70.70;;;;;;4823014;29;20409;-62
2022/06/29 12:05:31;;;;;;;2.30;1.58;;;29.70;70.00;;;;;;4791294;29;20255;-63
2022/06/29 12:07:57;;;;;;;4.60;1.67;;;29.60;69.10;;;;;;4823113;29;20050;-61
2022/06/29 12:10:22;;;;;;;2.65;1.52;;;29.50;69.90;;;;;;4806509;29;20141;-61
2022/06/29 12:12:48;;;;;;;4.68;1.63;;;29.50;70.50;;;;;;4806741;29;20054;-67
2022/06/29 12:15:16;;;;;;;3.28;1.83;;;29.60;69.70;;;;;;4806606;29;20055;-62
2022/06/29 12:17:43;;;;;;;3.90;1.70;;;29.50;69.80;;;;;;4806287;29;20110;-61
2022/06/29 12:20:09;;;;;;;3.53;1.90;;;29.40;69.60;;;;;;4822746;29;20413;-61
2022/06/29 12:22:36;;;;;;;2.75;1.80;;;29.50;70.10;;;;;;4822538;29;20114;-61
2022/06/29 12:25:02;;;;;;;2.95;1.95;;;29.50;70.50;;;;;;4822691;29;20050;-62
2022/06/29 12:27:28;;;;;;;3.60;2.10;;;29.50;71.00;;;;;;4822464;29;20066;-66
2022/06/29 12:29:55;;;;;;;4.95;1.92;;;29.50;70.90;;;;;;4822723;29;20062;-65
2022/06/29 12:32:21;;;;;;;2.70;1.95;;;29.60;71.60;;;;;;4806064;29;20069;-65
2022/06/29 12:34:46;;;;;;;3.28;1.88;;;29.70;71.80;;;;;;4822742;29;20046;-62
2022/06/29 12:37:13;;;;;;;6.15;2.20;;;29.60;71.40;;;;;;4806010;29;20606;-62
2022/06/29 12:39:38;;;;;;;4.55;2.00;;;29.60;71.40;;;;;;4822296;29;20051;-61
2022/06/29 12:42:04;;;;;;;4.35;2.17;;;29.40;71.30;;;;;;4806099;29;20057;-61
2022/06/29 12:44:30;;;;;;;5.53;2.30;;;29.50;71.20;;;;;;4821149;29;20051;-61
2022/06/29 12:46:56;;;;;;;4.65;2.35;;;29.50;71.90;;;;;;4822696;29;20046;-61
2022/06/29 12:49:22;;;;;;;3.80;2.22;;;29.50;71.80;;;;;;4822132;29;20050;-65
2022/06/29 12:51:48;;;;;;;3.70;2.25;;;29.60;72.30;;;;;;4822543;29;20501;-61
2022/06/29 12:54:14;;;;;;;3.95;2.30;;;29.60;72.00;;;;;;4806330;29;20054;-62
2022/06/29 12:56:40;;;;;;;3.97;2.40;;;29.50;71.80;;;;;;4805899;29;20091;-61
2022/06/29 12:59:06;;;;;;;5.28;2.22;;;29.40;72.00;;;;;;4822571;29;20070;-61
2022/06/29 13:01:31;;;;;;;4.03;2.15;;;29.40;72.30;;;;;;4822163;29;20050;-62
2022/06/29 13:03:57;;;;;;;3.30;2.25;;;29.40;72.60;;;;;;4821991;29;20054;-62
2022/06/29 13:06:23;;;;;;;4.43;2.58;;;29.40;74.30;;;;;;4809479;29;20046;-66
2022/06/29 13:08:49;;;;;;;6.05;2.67;;;29.50;73.90;;;;;;4809222;29;20510;-62
2022/06/29 13:11:14;;;;;;;3.83;2.58;;;29.50;73.90;;;;;;4809046;29;20055;-61